Main page
METAR-TAF:

METAR-TAF

Airports :

Žilina Airport

Žilina, Slovakia

latitude: 49-14N, longitude: 018-36-49E, elevation: 312 m

Current weather observation

The report was made 35 minutes ago, at 05:30 UTC
Wind 5 kt from the East
Temperature 6°C
Humidity 93%
Pressure 1026 hPa
Visibility 10 km or more
no clouds below 1500 m and no cumulonimbus

METAR: LZZI 190530Z 10005KT CAVOK 06/05 Q1026

Time: 08:05 (06:05 UTC)

Forecast

The report was made 1 hour and 5 minutes ago, at 05:00 UTC
Forecast valid from 19 at 06 UTC to 19 at 15 UTC
Wind 5 kt from the East/Southeast
Visibility 10 km or more
no clouds below 1500 m and no cumulonimbus

TAF: LZZI 190500Z 1906/1915 12005KT CAVOK

Weather observations and forecasts of more than 4000 airports (METAR and TAF reports).

The available stations are represented by yellow and red dots on the map.

Hover mouse over dot to see the name of the station.

Then click to see weather observations and forecasts.

To change the map : click on the green buttons with a black cross to zoom in, on the green button with a dash to zoom out, or on the green arrows for adjacent maps.


METAR-TAF: